createdAt,value
2017-11-29T00:01:55.071Z,55.00
2017-11-29T00:04:23.295Z,55.00
2017-11-29T00:06:51.584Z,55.10
2017-11-29T00:09:19.028Z,55.10
2017-11-29T00:11:47.239Z,55.20
2017-11-29T00:14:14.715Z,55.10
2017-11-29T00:16:42.178Z,55.10
2017-11-29T00:19:09.638Z,55.10
2017-11-29T00:21:37.911Z,55.20
2017-11-29T00:24:05.375Z,55.20
2017-11-29T00:26:32.831Z,55.20
2017-11-29T00:29:00.357Z,55.00
2017-11-29T00:31:27.803Z,55.10
2017-11-29T00:33:55.252Z,55.10
2017-11-29T00:36:22.719Z,55.00
2017-11-29T00:38:50.842Z,54.90
2017-11-29T00:41:18.298Z,54.90
2017-11-29T00:43:45.755Z,54.90
2017-11-29T00:46:14.871Z,55.10
2017-11-29T00:48:43.847Z,55.10
2017-11-29T00:51:11.303Z,55.60
2017-11-29T00:53:38.763Z,55.00
2017-11-29T00:56:06.231Z,55.10
2017-11-29T00:58:33.700Z,55.00
2017-11-29T01:01:01.933Z,55.10
2017-11-29T01:03:29.388Z,55.10
2017-11-29T01:05:57.612Z,55.10
2017-11-29T01:08:25.881Z,55.20
2017-11-29T01:10:53.318Z,55.20
2017-11-29T01:13:20.776Z,55.20
2017-11-29T01:15:48.251Z,55.10
2017-11-29T01:18:15.704Z,55.10
2017-11-29T01:20:43.171Z,55.10
2017-11-29T01:23:10.627Z,54.90
2017-11-29T01:25:38.109Z,55.00
2017-11-29T01:28:05.587Z,55.00
2017-11-29T01:30:33.034Z,55.00
2017-11-29T01:33:01.263Z,55.00
2017-11-29T01:35:28.722Z,55.50
2017-11-29T01:37:56.192Z,54.90
2017-11-29T01:40:24.448Z,55.00
2017-11-29T01:42:51.916Z,55.00
2017-11-29T01:45:19.380Z,54.90
2017-11-29T01:47:46.848Z,55.00
2017-11-29T01:50:15.068Z,55.00
2017-11-29T01:52:43.497Z,54.90
2017-11-29T01:55:11.744Z,54.90
2017-11-29T01:57:39.228Z,54.90
2017-11-29T02:00:06.687Z,54.90
2017-11-29T02:02:34.144Z,54.80
2017-11-29T02:05:02.367Z,54.90
2017-11-29T02:07:29.834Z,54.70
2017-11-29T02:09:57.283Z,54.80
2017-11-29T02:12:24.739Z,54.90
2017-11-29T02:14:52.963Z,54.80
2017-11-29T02:17:20.430Z,54.70
2017-11-29T02:19:48.648Z,54.80
2017-11-29T02:22:16.891Z,54.90
2017-11-29T02:24:44.350Z,54.80
2017-11-29T02:27:12.589Z,54.80
2017-11-29T02:29:40.075Z,54.80
2017-11-29T02:32:08.321Z,54.90
2017-11-29T02:34:35.822Z,54.90
2017-11-29T02:37:03.252Z,54.90
2017-11-29T02:39:30.717Z,54.80
2017-11-29T02:42:10.074Z,54.80
2017-11-29T02:44:37.536Z,54.80
2017-11-29T02:47:04.985Z,54.80
2017-11-29T02:49:32.447Z,54.80
2017-11-29T02:51:59.908Z,54.60
2017-11-29T02:54:27.362Z,54.70
2017-11-29T02:56:54.811Z,54.60
2017-11-29T02:59:23.062Z,54.50
2017-11-29T03:01:50.523Z,54.50
2017-11-29T03:04:17.984Z,54.40
2017-11-29T03:06:45.436Z,54.40
2017-11-29T03:09:12.898Z,54.60
2017-11-29T03:11:41.126Z,54.60
2017-11-29T03:14:08.599Z,54.60
2017-11-29T03:16:36.059Z,54.60
2017-11-29T03:19:04.291Z,54.60
2017-11-29T03:21:31.761Z,54.60
2017-11-29T03:23:59.252Z,54.60
2017-11-29T03:26:26.708Z,54.70
2017-11-29T03:28:54.166Z,54.50
2017-11-29T03:31:21.654Z,54.60
2017-11-29T03:33:49.111Z,54.50
2017-11-29T03:36:17.381Z,54.60
2017-11-29T03:38:44.838Z,54.60
2017-11-29T03:41:12.290Z,54.60
2017-11-29T03:43:39.755Z,54.40
2017-11-29T03:46:07.211Z,54.40
2017-11-29T03:48:35.453Z,54.60
2017-11-29T03:51:03.659Z,54.60
2017-11-29T03:53:31.114Z,54.60
2017-11-29T03:55:58.579Z,54.60
2017-11-29T03:58:26.820Z,55.10
2017-11-29T04:00:54.280Z,54.40
2017-11-29T04:03:21.727Z,54.40
2017-11-29T04:05:49.196Z,54.50
2017-11-29T04:08:16.650Z,54.50
2017-11-29T04:10:44.138Z,54.40
2017-11-29T04:13:12.368Z,54.40
2017-11-29T04:15:39.829Z,54.40
2017-11-29T04:18:07.322Z,54.20
2017-11-29T04:20:34.784Z,54.30
2017-11-29T04:23:02.252Z,54.30
2017-11-29T04:25:30.479Z,54.60
2017-11-29T04:27:57.953Z,54.60
2017-11-29T04:30:25.405Z,54.30
2017-11-29T04:32:52.896Z,54.40
2017-11-29T04:35:20.359Z,54.90
2017-11-29T04:37:48.592Z,54.80
2017-11-29T04:40:16.051Z,54.70
2017-11-29T04:42:43.536Z,54.70
2017-11-29T04:45:10.992Z,54.40
2017-11-29T04:47:38.471Z,54.60
2017-11-29T04:50:06.705Z,54.40
2017-11-29T04:52:34.174Z,54.50
2017-11-29T04:55:01.630Z,54.60
2017-11-29T04:57:29.100Z,54.30
2017-11-29T04:59:56.543Z,54.50
2017-11-29T05:02:24.017Z,54.50
2017-11-29T05:04:51.466Z,54.50
2017-11-29T05:07:18.922Z,54.50
2017-11-29T05:09:46.379Z,54.40
2017-11-29T05:12:13.834Z,54.40
2017-11-29T05:14:41.301Z,54.50
2017-11-29T05:17:09.550Z,54.10
2017-11-29T05:19:37.009Z,54.10
2017-11-29T05:22:04.488Z,54.40
2017-11-29T05:24:31.943Z,54.20
2017-11-29T05:26:59.399Z,54.30
2017-11-29T05:29:26.857Z,54.30
2017-11-29T05:31:54.317Z,54.50
2017-11-29T05:34:21.771Z,54.50
2017-11-29T05:36:49.229Z,54.50
2017-11-29T05:39:16.682Z,54.40
2017-11-29T05:41:44.144Z,54.40
2017-11-29T05:44:12.371Z,54.40
2017-11-29T05:46:39.847Z,54.30
2017-11-29T05:49:07.320Z,54.50
2017-11-29T05:51:34.783Z,54.50
2017-11-29T05:54:02.247Z,54.60
2017-11-29T05:56:30.474Z,54.60
2017-11-29T05:58:58.702Z,54.60
2017-11-29T06:01:26.158Z,54.60
2017-11-29T06:03:54.396Z,54.70
2017-11-29T06:06:21.867Z,54.70
2017-11-29T06:08:49.327Z,55.20
2017-11-29T06:11:16.782Z,54.60
2017-11-29T06:13:45.005Z,54.80
2017-11-29T06:16:13.228Z,54.70
2017-11-29T06:18:41.454Z,54.70
2017-11-29T06:21:08.914Z,54.70
2017-11-29T06:23:37.148Z,54.70
2017-11-29T06:26:04.606Z,54.70
2017-11-29T06:28:32.062Z,54.60
2017-11-29T06:30:59.537Z,54.60
2017-11-29T06:33:26.999Z,54.60
2017-11-29T06:35:55.246Z,54.70
2017-11-29T06:38:22.695Z,54.70
2017-11-29T06:40:50.184Z,54.60
2017-11-29T06:43:17.631Z,54.40
2017-11-29T06:45:45.105Z,54.70
2017-11-29T06:48:12.635Z,54.60
2017-11-29T06:50:40.870Z,54.50
2017-11-29T06:53:09.091Z,54.50
2017-11-29T06:55:36.579Z,54.50
2017-11-29T06:58:04.824Z,54.50
2017-11-29T07:00:32.278Z,54.60
2017-11-29T07:02:59.759Z,54.50
2017-11-29T07:05:27.225Z,54.40
2017-11-29T07:07:55.460Z,54.50
2017-11-29T07:10:22.939Z,54.30
2017-11-29T07:12:50.392Z,54.40
2017-11-29T07:15:17.848Z,54.30
2017-11-29T07:17:45.311Z,54.40
2017-11-29T07:20:12.758Z,54.30
2017-11-29T07:22:40.231Z,54.20
2017-11-29T07:25:07.688Z,54.10
2017-11-29T07:27:35.152Z,54.40
2017-11-29T07:30:02.609Z,54.30
2017-11-29T07:32:30.073Z,54.30
2017-11-29T07:34:57.523Z,54.20
2017-11-29T07:37:24.984Z,54.30
2017-11-29T07:39:52.441Z,54.20
2017-11-29T07:42:19.895Z,53.90
2017-11-29T07:44:47.357Z,54.20
2017-11-29T07:47:14.819Z,54.30
2017-11-29T07:49:43.047Z,54.00
2017-11-29T07:52:10.531Z,54.00
2017-11-29T07:54:37.985Z,54.20
2017-11-29T07:57:05.457Z,54.00
2017-11-29T07:59:32.915Z,54.20
2017-11-29T08:02:00.375Z,54.00
2017-11-29T08:04:27.830Z,54.20
2017-11-29T08:06:56.066Z,54.20
2017-11-29T08:09:23.567Z,54.20
2017-11-29T08:11:51.019Z,54.10
2017-11-29T08:14:18.480Z,54.10
2017-11-29T08:16:45.931Z,54.00
2017-11-29T08:19:14.176Z,53.90
2017-11-29T08:21:41.642Z,53.90
2017-11-29T08:24:09.121Z,53.80
2017-11-29T08:26:36.568Z,53.80
2017-11-29T08:29:04.027Z,53.70
2017-11-29T08:31:31.487Z,53.60
2017-11-29T08:33:58.943Z,53.50
2017-11-29T08:36:26.400Z,53.40
2017-11-29T08:38:53.859Z,53.30
2017-11-29T08:41:21.315Z,53.30
2017-11-29T08:43:48.777Z,53.00
2017-11-29T08:46:16.227Z,53.30
2017-11-29T08:48:44.461Z,53.00
2017-11-29T08:51:12.675Z,53.20
2017-11-29T08:53:40.918Z,52.90
2017-11-29T08:56:08.374Z,52.90
2017-11-29T08:58:35.868Z,53.10
2017-11-29T09:01:03.334Z,53.10
2017-11-29T09:03:30.813Z,52.90
2017-11-29T09:05:59.035Z,53.20
2017-11-29T09:08:27.261Z,53.10
2017-11-29T09:10:55.492Z,53.20
2017-11-29T09:13:22.975Z,53.10
2017-11-29T09:15:50.435Z,53.10
2017-11-29T09:18:17.911Z,52.80
2017-11-29T09:20:46.135Z,53.00
2017-11-29T09:23:13.598Z,53.00
2017-11-29T09:25:41.059Z,52.80
2017-11-29T09:28:08.523Z,53.30
2017-11-29T09:30:35.989Z,53.20
2017-11-29T09:33:03.447Z,53.20
2017-11-29T09:35:30.916Z,53.20
2017-11-29T09:37:58.376Z,53.00
2017-11-29T09:40:25.831Z,53.30
2017-11-29T09:42:54.806Z,53.10
2017-11-29T09:45:22.282Z,53.00
2017-11-29T09:47:49.734Z,53.10
2017-11-29T09:50:17.985Z,53.10
2017-11-29T09:52:45.456Z,53.10
2017-11-29T09:55:12.942Z,53.20
2017-11-29T09:57:41.191Z,52.80
2017-11-29T10:00:08.654Z,52.90
2017-11-29T10:02:36.118Z,52.90
2017-11-29T10:05:03.594Z,52.80
2017-11-29T10:07:31.838Z,53.30
2017-11-29T10:09:59.304Z,53.30
2017-11-29T10:12:26.771Z,53.20
2017-11-29T10:14:54.223Z,53.20
2017-11-29T10:17:21.679Z,53.20
2017-11-29T10:19:49.139Z,53.50
2017-11-29T10:22:16.603Z,53.40
2017-11-29T10:24:44.057Z,53.50
2017-11-29T10:27:11.519Z,53.60
2017-11-29T10:29:39.742Z,53.50
2017-11-29T10:32:07.971Z,53.10
2017-11-29T10:34:36.203Z,53.40
2017-11-29T10:37:03.679Z,53.40
2017-11-29T10:39:31.131Z,53.40
2017-11-29T10:41:58.598Z,53.30
2017-11-29T10:44:26.063Z,53.10
2017-11-29T10:46:53.541Z,52.90
2017-11-29T10:49:21.767Z,52.50
2017-11-29T10:51:49.223Z,52.50
2017-11-29T10:54:16.699Z,52.40
2017-11-29T10:56:44.924Z,52.50
2017-11-29T10:59:12.456Z,52.50
2017-11-29T11:01:39.919Z,52.90
2017-11-29T11:04:08.172Z,53.10
2017-11-29T11:06:36.391Z,53.40
2017-11-29T11:09:04.628Z,53.20
2017-11-29T11:11:32.091Z,53.20
2017-11-29T11:13:59.547Z,53.00
2017-11-29T11:16:27.003Z,53.30
2017-11-29T11:18:55.251Z,53.30
2017-11-29T11:21:22.741Z,53.30
2017-11-29T11:23:50.193Z,53.10
2017-11-29T11:26:17.664Z,53.00
2017-11-29T11:28:45.907Z,53.40
2017-11-29T11:31:13.371Z,53.50
2017-11-29T11:33:40.871Z,53.50
2017-11-29T11:36:09.087Z,53.20
2017-11-29T11:38:36.557Z,53.20
2017-11-29T11:41:04.030Z,52.90
2017-11-29T11:43:31.479Z,53.20
2017-11-29T11:45:58.947Z,53.40
2017-11-29T11:48:26.413Z,53.50
2017-11-29T11:50:53.870Z,53.40
2017-11-29T11:53:21.329Z,53.40
2017-11-29T11:55:49.576Z,53.50
2017-11-29T11:58:17.814Z,53.40
2017-11-29T12:00:45.285Z,53.40
2017-11-29T12:03:12.763Z,53.30
2017-11-29T12:05:40.219Z,53.60
2017-11-29T12:08:07.679Z,53.70
2017-11-29T12:10:35.140Z,53.60
2017-11-29T12:13:02.612Z,53.50
2017-11-29T12:15:30.076Z,53.70
2017-11-29T12:17:57.537Z,53.60
2017-11-29T12:20:31.778Z,53.30
2017-11-29T12:22:59.243Z,53.10
2017-11-29T12:25:26.714Z,53.10
2017-11-29T12:27:54.171Z,53.10
2017-11-29T12:30:21.658Z,53.30
2017-11-29T12:32:49.115Z,53.20
2017-11-29T12:35:16.577Z,53.30
2017-11-29T12:37:44.026Z,53.10
2017-11-29T12:40:11.483Z,53.30
2017-11-29T12:42:38.967Z,53.40
2017-11-29T12:45:06.427Z,53.40
2017-11-29T12:47:44.197Z,53.50
2017-11-29T12:50:23.331Z,53.50
2017-11-29T12:52:50.804Z,53.60
2017-11-29T12:55:18.260Z,53.80
2017-11-29T12:57:46.488Z,53.90
2017-11-29T13:00:14.716Z,53.90
2017-11-29T13:02:42.170Z,53.90
2017-11-29T13:05:11.147Z,54.00
2017-11-29T13:07:38.610Z,53.90
2017-11-29T13:10:06.063Z,54.00
2017-11-29T13:12:33.534Z,54.10
2017-11-29T13:15:00.988Z,54.10
2017-11-29T13:17:29.224Z,54.00
2017-11-29T13:19:56.679Z,54.00
2017-11-29T13:22:24.170Z,53.80
2017-11-29T13:24:51.630Z,53.90
2017-11-29T13:27:19.089Z,54.10
2017-11-29T13:29:47.328Z,54.10
2017-11-29T13:32:14.802Z,54.10
2017-11-29T13:34:42.265Z,54.00
2017-11-29T13:37:09.726Z,54.00
2017-11-29T13:39:37.183Z,53.60
2017-11-29T13:42:04.638Z,53.90
2017-11-29T13:44:32.127Z,54.00
2017-11-29T13:46:59.588Z,54.00
2017-11-29T13:49:27.828Z,54.10
2017-11-29T13:51:55.277Z,54.00
2017-11-29T13:54:22.745Z,54.10
2017-11-29T13:56:50.209Z,54.20
2017-11-29T13:59:17.679Z,54.20
2017-11-29T14:01:45.144Z,54.40
2017-11-29T14:04:12.592Z,54.40
2017-11-29T14:06:40.817Z,54.30
2017-11-29T14:09:08.279Z,54.30
2017-11-29T14:11:36.537Z,54.20
2017-11-29T14:14:03.995Z,54.10
2017-11-29T14:16:31.448Z,54.20
2017-11-29T14:18:58.930Z,54.30
2017-11-29T14:21:26.391Z,54.90
2017-11-29T14:23:54.611Z,54.20
2017-11-29T14:26:22.840Z,54.30
2017-11-29T14:28:51.111Z,54.40
2017-11-29T14:31:18.570Z,54.40
2017-11-29T14:33:46.062Z,54.50
2017-11-29T14:36:13.519Z,54.50
2017-11-29T14:38:40.979Z,54.50
2017-11-29T14:41:08.440Z,54.40
2017-11-29T14:43:35.922Z,54.30
2017-11-29T14:46:04.156Z,54.70
2017-11-29T14:48:31.603Z,54.70
2017-11-29T14:50:59.080Z,54.60
2017-11-29T14:53:26.538Z,54.60
2017-11-29T14:55:53.991Z,54.70
2017-11-29T14:58:21.462Z,54.50
2017-11-29T15:00:49.719Z,54.60
2017-11-29T15:03:17.182Z,54.60
2017-11-29T15:05:44.650Z,54.50
2017-11-29T15:08:12.114Z,54.60
2017-11-29T15:10:40.341Z,54.70
2017-11-29T15:13:07.815Z,54.60
2017-11-29T15:15:35.279Z,54.60
2017-11-29T15:18:02.747Z,54.60
2017-11-29T15:20:30.204Z,55.30
2017-11-29T15:22:57.650Z,54.70
2017-11-29T15:25:25.122Z,54.70
2017-11-29T15:27:52.564Z,54.70
2017-11-29T15:30:21.682Z,54.70
2017-11-29T15:32:49.127Z,54.60
2017-11-29T15:35:16.596Z,54.80
2017-11-29T15:37:44.039Z,54.80
2017-11-29T15:40:11.502Z,54.60
2017-11-29T15:42:38.963Z,54.90
2017-11-29T15:45:06.425Z,54.70
2017-11-29T15:47:33.875Z,54.70
2017-11-29T15:50:01.331Z,54.70
2017-11-29T15:52:28.784Z,54.70
2017-11-29T15:54:56.246Z,54.60
2017-11-29T15:57:23.699Z,54.60
2017-11-29T15:59:51.211Z,54.70
2017-11-29T16:02:18.684Z,54.70
2017-11-29T16:04:46.162Z,54.60
2017-11-29T16:07:13.618Z,54.40
2017-11-29T16:09:41.080Z,54.70
2017-11-29T16:12:08.539Z,54.70
2017-11-29T16:14:36.041Z,54.80
2017-11-29T16:17:04.264Z,54.90
2017-11-29T16:19:31.723Z,54.90
2017-11-29T16:21:59.180Z,54.80
2017-11-29T16:24:27.432Z,54.50
2017-11-29T16:26:54.919Z,54.50
2017-11-29T16:29:23.143Z,54.60
2017-11-29T16:31:51.371Z,54.90
2017-11-29T16:34:18.822Z,54.90
2017-11-29T16:36:46.279Z,54.90
2017-11-29T16:39:14.503Z,55.10
2017-11-29T16:41:42.842Z,55.10
2017-11-29T16:44:10.314Z,55.00
2017-11-29T16:46:38.562Z,54.90
2017-11-29T16:49:06.777Z,55.00
2017-11-29T16:51:34.274Z,55.00
2017-11-29T16:54:01.739Z,54.80
2017-11-29T16:56:29.214Z,55.00
2017-11-29T16:58:57.443Z,54.60
2017-11-29T17:01:25.673Z,54.70
2017-11-29T17:03:53.130Z,54.60
2017-11-29T17:06:20.583Z,55.00
2017-11-29T17:08:48.053Z,54.90
2017-11-29T17:11:15.552Z,54.90
2017-11-29T17:13:43.780Z,54.90
2017-11-29T17:16:11.284Z,54.80
2017-11-29T17:18:39.518Z,54.80
2017-11-29T17:21:06.971Z,54.70
2017-11-29T17:23:34.432Z,54.90
2017-11-29T17:26:01.887Z,55.00
2017-11-29T17:28:29.359Z,55.00
2017-11-29T17:30:56.818Z,54.80
2017-11-29T17:33:24.278Z,54.60
2017-11-29T17:35:51.735Z,54.90
2017-11-29T17:38:19.221Z,54.60
2017-11-29T17:40:47.483Z,54.80
2017-11-29T17:43:15.717Z,54.80
2017-11-29T17:45:43.198Z,54.80
2017-11-29T17:48:10.679Z,54.80
2017-11-29T17:50:38.907Z,54.80
2017-11-29T17:53:06.384Z,54.80
2017-11-29T17:55:34.849Z,54.50
2017-11-29T17:58:02.308Z,54.60
2017-11-29T18:00:29.806Z,54.50
2017-11-29T18:02:58.032Z,54.60
2017-11-29T18:05:26.279Z,54.40
2017-11-29T18:07:53.738Z,55.30
2017-11-29T18:10:21.231Z,54.70
2017-11-29T18:12:48.679Z,54.90
2017-11-29T18:15:16.135Z,54.70
2017-11-29T18:17:43.596Z,54.90
2017-11-29T18:20:11.074Z,54.70
2017-11-29T18:22:39.326Z,54.60
2017-11-29T18:25:06.795Z,54.70
2017-11-29T18:27:34.252Z,54.50
2017-11-29T18:30:01.803Z,54.80
2017-11-29T18:32:29.286Z,54.50
2017-11-29T18:34:56.738Z,54.60
2017-11-29T18:37:24.991Z,54.40
2017-11-29T18:39:52.463Z,55.30
2017-11-29T18:42:19.934Z,54.70
2017-11-29T18:44:47.395Z,54.90
2017-11-29T18:47:14.869Z,55.20
2017-11-29T18:49:43.312Z,55.20
2017-11-29T18:52:11.562Z,54.80
2017-11-29T18:54:39.784Z,55.20
2017-11-29T18:57:08.045Z,54.60
2017-11-29T18:59:35.502Z,54.60
2017-11-29T19:02:02.965Z,54.80
2017-11-29T19:04:30.559Z,55.40
2017-11-29T19:06:58.825Z,55.10
2017-11-29T19:09:26.283Z,55.10
2017-11-29T19:11:54.515Z,54.70
2017-11-29T19:14:21.975Z,54.80
2017-11-29T19:16:49.434Z,54.80
2017-11-29T19:19:16.898Z,54.90
2017-11-29T19:21:44.359Z,54.50
2017-11-29T19:24:11.808Z,54.90
2017-11-29T19:26:39.266Z,54.40
2017-11-29T19:29:07.528Z,54.40
2017-11-29T19:31:35.015Z,54.40
2017-11-29T19:34:02.474Z,54.70
2017-11-29T19:36:29.948Z,54.10
2017-11-29T19:38:58.180Z,54.70
2017-11-29T19:41:25.662Z,54.60
2017-11-29T19:43:53.122Z,54.50
2017-11-29T19:46:20.639Z,54.30
2017-11-29T19:48:48.108Z,54.40
2017-11-29T19:51:15.618Z,54.20
2017-11-29T19:53:43.853Z,54.30
2017-11-29T19:56:11.315Z,54.30
2017-11-29T19:58:39.555Z,54.60
2017-11-29T20:01:07.032Z,54.50
2017-11-29T20:03:35.312Z,54.50
2017-11-29T20:06:02.780Z,54.50
2017-11-29T20:08:30.232Z,54.60
2017-11-29T20:10:58.452Z,54.60
2017-11-29T20:13:26.696Z,55.20
2017-11-29T20:15:54.168Z,55.20
2017-11-29T20:18:21.681Z,55.40
2017-11-29T20:20:49.152Z,55.60
2017-11-29T20:23:16.625Z,55.40
2017-11-29T20:25:44.842Z,55.30
2017-11-29T20:28:13.076Z,55.60
2017-11-29T20:30:40.523Z,55.60
2017-11-29T20:33:07.999Z,55.80
2017-11-29T20:35:35.456Z,55.50
2017-11-29T20:38:02.896Z,55.60
2017-11-29T20:40:31.111Z,55.40
2017-11-29T20:42:59.331Z,56.00
2017-11-29T20:45:26.786Z,56.00
2017-11-29T20:47:54.251Z,56.00
2017-11-29T20:50:21.724Z,55.60
2017-11-29T20:52:55.024Z,55.70
2017-11-29T20:55:22.514Z,55.50
2017-11-29T20:57:50.732Z,55.70
2017-11-29T21:00:18.208Z,55.60
2017-11-29T21:02:45.657Z,56.00
2017-11-29T21:05:13.112Z,55.90
2017-11-29T21:07:40.566Z,56.00
2017-11-29T21:10:08.014Z,55.70
2017-11-29T21:12:35.502Z,56.00
2017-11-29T21:15:02.957Z,56.20
2017-11-29T21:17:31.183Z,56.20
2017-11-29T21:19:58.684Z,56.10
2017-11-29T21:22:26.123Z,55.00
2017-11-29T21:24:53.585Z,55.60
2017-11-29T21:27:21.807Z,55.20
2017-11-29T21:29:49.270Z,55.20
2017-11-29T21:32:17.495Z,55.60
2017-11-29T21:34:44.947Z,55.20
2017-11-29T21:37:12.409Z,55.10
2017-11-29T21:39:39.867Z,55.10
2017-11-29T21:42:07.329Z,54.90
2017-11-29T21:44:34.784Z,55.20
2017-11-29T21:47:02.257Z,55.20
2017-11-29T21:49:29.713Z,55.40
2017-11-29T21:51:57.161Z,55.30
2017-11-29T21:54:24.618Z,55.10
2017-11-29T21:56:52.083Z,54.80
2017-11-29T21:59:19.542Z,55.30
2017-11-29T22:01:47.027Z,55.00
2017-11-29T22:04:14.488Z,55.30
2017-11-29T22:06:41.941Z,55.30
2017-11-29T22:09:10.748Z,55.20
2017-11-29T22:11:38.973Z,55.40
2017-11-29T22:14:06.442Z,55.40
2017-11-29T22:16:33.919Z,55.30
2017-11-29T22:19:01.375Z,55.50
2017-11-29T22:21:28.872Z,55.30
2017-11-29T22:23:56.332Z,55.30
2017-11-29T22:26:23.811Z,55.30
2017-11-29T22:28:51.275Z,55.20
2017-11-29T22:31:18.730Z,55.30
2017-11-29T22:33:46.192Z,55.20
2017-11-29T22:36:13.638Z,55.20
2017-11-29T22:38:41.140Z,55.40
2017-11-29T22:41:08.590Z,55.30
2017-11-29T22:43:36.085Z,55.40
2017-11-29T22:46:03.530Z,55.40
2017-11-29T22:48:31.758Z,55.40
2017-11-29T22:50:59.213Z,55.40
2017-11-29T22:53:26.670Z,55.50
2017-11-29T22:55:54.119Z,55.20
2017-11-29T22:58:21.584Z,55.00
2017-11-29T23:00:49.043Z,55.60
2017-11-29T23:03:16.500Z,55.60
2017-11-29T23:05:43.959Z,55.60
2017-11-29T23:08:11.412Z,55.50
2017-11-29T23:10:38.868Z,55.60
2017-11-29T23:13:06.335Z,56.10
2017-11-29T23:15:33.783Z,55.60
2017-11-29T23:18:01.238Z,55.50
2017-11-29T23:20:28.695Z,55.50
2017-11-29T23:22:56.186Z,55.60
2017-11-29T23:25:23.639Z,55.70
2017-11-29T23:27:51.099Z,55.50
2017-11-29T23:30:18.555Z,55.60
2017-11-29T23:32:46.012Z,55.60
2017-11-29T23:35:13.483Z,55.40
2017-11-29T23:37:41.710Z,55.70
2017-11-29T23:40:09.180Z,55.60
2017-11-29T23:42:36.632Z,55.40
2017-11-29T23:45:04.117Z,55.70
2017-11-29T23:47:31.585Z,55.40
2017-11-29T23:49:59.802Z,56.00
2017-11-29T23:52:27.257Z,56.00
2017-11-29T23:54:55.403Z,55.70
2017-11-29T23:57:23.616Z,55.50
2017-11-29T23:59:51.080Z,55.40
